createdAt,value
2016-12-29T00:00:25.552Z,0
2016-12-29T00:01:48.460Z,0
2016-12-29T00:03:11.432Z,0
2016-12-29T00:04:34.354Z,0
2016-12-29T00:05:56.838Z,0
2016-12-29T00:07:19.462Z,0
2016-12-29T00:08:42.334Z,0
2016-12-29T00:10:04.121Z,0
2016-12-29T00:11:27.046Z,0
2016-12-29T00:12:50.010Z,0
2016-12-29T00:14:12.977Z,0
2016-12-29T00:15:34.647Z,0
2016-12-29T00:16:57.328Z,0
2016-12-29T00:18:20.198Z,0
2016-12-29T00:19:43.225Z,0
2016-12-29T00:21:06.128Z,0
2016-12-29T00:22:27.844Z,0
2016-12-29T00:23:49.631Z,0
2016-12-29T00:25:11.714Z,0
2016-12-29T00:26:34.595Z,0
2016-12-29T00:27:57.073Z,0
2016-12-29T00:29:19.188Z,0
2016-12-29T00:30:41.651Z,0
2016-12-29T00:32:04.235Z,0
2016-12-29T00:33:26.299Z,0
2016-12-29T00:34:48.789Z,0
2016-12-29T00:36:11.267Z,0
2016-12-29T00:37:33.795Z,0
2016-12-29T00:38:55.866Z,0
2016-12-29T00:40:18.470Z,0
2016-12-29T00:41:40.969Z,0
2016-12-29T00:43:03.091Z,0
2016-12-29T00:44:25.559Z,0
2016-12-29T00:45:48.029Z,0
2016-12-29T00:47:10.496Z,0
2016-12-29T00:48:33.034Z,0
2016-12-29T00:49:55.876Z,0
2016-12-29T00:51:17.535Z,0
2016-12-29T00:52:39.616Z,0
2016-12-29T00:54:02.138Z,0
2016-12-29T00:55:24.641Z,0
2016-12-29T00:56:46.829Z,0
2016-12-29T00:58:08.888Z,0
2016-12-29T00:59:31.758Z,0
2016-12-29T01:00:54.246Z,0
2016-12-29T01:02:16.826Z,0
2016-12-29T01:03:39.008Z,0
2016-12-29T01:05:01.914Z,0
2016-12-29T01:06:23.987Z,0
2016-12-29T01:07:45.651Z,0
2016-12-29T01:09:08.227Z,0
2016-12-29T01:10:31.138Z,0
2016-12-29T01:11:54.035Z,0
2016-12-29T01:13:16.936Z,0
2016-12-29T01:14:39.043Z,0
2016-12-29T01:16:01.936Z,0
2016-12-29T01:17:24.335Z,0
2016-12-29T01:18:47.267Z,0
2016-12-29T01:20:10.136Z,0
2016-12-29T01:21:33.076Z,0
2016-12-29T01:22:55.223Z,0
2016-12-29T01:24:17.337Z,0
2016-12-29T01:25:39.002Z,0
2016-12-29T01:27:01.991Z,0
2016-12-29T01:28:24.480Z,0
2016-12-29T01:29:46.533Z,0
2016-12-29T01:31:09.496Z,0
2016-12-29T01:32:32.365Z,0
2016-12-29T01:33:55.244Z,0
2016-12-29T01:35:17.755Z,0
2016-12-29T01:36:39.875Z,0
2016-12-29T01:38:02.432Z,0
2016-12-29T01:39:24.478Z,0
2016-12-29T01:40:46.657Z,0
2016-12-29T01:42:08.723Z,0
2016-12-29T01:43:31.199Z,0
2016-12-29T01:44:53.698Z,0
2016-12-29T01:46:16.655Z,0
2016-12-29T01:47:38.353Z,0
2016-12-29T01:49:00.810Z,0
2016-12-29T01:50:23.377Z,0
2016-12-29T01:51:45.954Z,0
2016-12-29T01:53:07.626Z,0
2016-12-29T01:54:30.495Z,0
2016-12-29T01:55:53.026Z,0
2016-12-29T01:57:16.041Z,0
2016-12-29T01:58:38.524Z,0
2016-12-29T02:00:01.490Z,0
2016-12-29T02:01:24.001Z,0
2016-12-29T02:02:46.452Z,0
2016-12-29T02:04:09.346Z,0
2016-12-29T02:05:32.211Z,0
2016-12-29T02:06:53.889Z,0
2016-12-29T02:08:16.416Z,0
2016-12-29T02:09:38.495Z,0
2016-12-29T02:11:01.485Z,0
2016-12-29T02:12:23.946Z,0
2016-12-29T02:13:46.066Z,0
2016-12-29T02:15:08.144Z,0
2016-12-29T02:16:30.754Z,0
2016-12-29T02:17:53.635Z,0
2016-12-29T02:19:16.218Z,0
2016-12-29T02:20:39.084Z,0
2016-12-29T02:22:01.367Z,0
2016-12-29T02:23:24.274Z,0
2016-12-29T02:24:46.360Z,0
2016-12-29T02:26:08.925Z,0
2016-12-29T02:27:31.778Z,0
2016-12-29T02:28:54.268Z,0
2016-12-29T02:30:16.749Z,0
2016-12-29T02:31:39.625Z,0
2016-12-29T02:33:01.671Z,0
2016-12-29T02:34:23.809Z,0
2016-12-29T02:35:46.264Z,0
2016-12-29T02:37:08.720Z,0
2016-12-29T02:38:31.226Z,0
2016-12-29T02:39:53.306Z,0
2016-12-29T02:41:16.166Z,0
2016-12-29T02:42:38.398Z,0
2016-12-29T02:44:00.914Z,0
2016-12-29T02:45:23.380Z,0
2016-12-29T02:46:45.857Z,0
2016-12-29T02:48:08.494Z,0
2016-12-29T02:49:31.390Z,0
2016-12-29T02:50:54.287Z,0
2016-12-29T02:52:16.753Z,0
2016-12-29T02:53:39.713Z,0
2016-12-29T02:55:02.286Z,0
2016-12-29T02:56:25.319Z,0
2016-12-29T02:57:46.227Z,0
2016-12-29T02:59:08.363Z,0
2016-12-29T03:00:30.569Z,0
2016-12-29T03:01:53.032Z,0
2016-12-29T03:03:15.522Z,0
2016-12-29T03:04:37.587Z,0
2016-12-29T03:06:00.539Z,0
2016-12-29T03:07:23.416Z,0
2016-12-29T03:08:45.891Z,0
2016-12-29T03:10:08.891Z,0
2016-12-29T03:11:31.445Z,0
2016-12-29T03:12:53.932Z,0
2016-12-29T03:14:17.013Z,0
2016-12-29T03:15:39.477Z,0
2016-12-29T03:17:02.318Z,0
2016-12-29T03:18:24.805Z,0
2016-12-29T03:19:47.301Z,0
2016-12-29T03:21:10.230Z,0
2016-12-29T03:22:32.301Z,0
2016-12-29T03:23:54.838Z,0
2016-12-29T03:25:16.885Z,0
2016-12-29T03:26:39.347Z,0
2016-12-29T03:28:01.809Z,0
2016-12-29T03:29:24.270Z,0
2016-12-29T03:30:47.258Z,0
2016-12-29T03:32:10.171Z,0
2016-12-29T03:33:32.715Z,0
2016-12-29T03:34:55.189Z,0
2016-12-29T03:36:17.296Z,0
2016-12-29T03:37:39.376Z,0
2016-12-29T03:39:02.236Z,0
2016-12-29T03:40:24.925Z,0
2016-12-29T03:41:47.885Z,0
2016-12-29T03:43:10.362Z,0
2016-12-29T03:44:32.416Z,0
2016-12-29T03:45:54.158Z,0
2016-12-29T03:47:16.779Z,0
2016-12-29T03:48:39.293Z,0
2016-12-29T03:50:01.763Z,0
2016-12-29T03:51:24.376Z,0
2016-12-29T03:52:46.544Z,0
2016-12-29T03:54:09.476Z,0
2016-12-29T03:55:32.391Z,0
2016-12-29T03:56:54.947Z,0
2016-12-29T03:58:17.448Z,0
2016-12-29T03:59:39.916Z,0
2016-12-29T04:01:02.389Z,0
2016-12-29T04:02:24.848Z,0
2016-12-29T04:03:46.895Z,0
2016-12-29T04:05:09.057Z,0
2016-12-29T04:06:30.720Z,0
2016-12-29T04:07:53.194Z,0
2016-12-29T04:09:14.969Z,0
2016-12-29T04:10:37.122Z,0
2016-12-29T04:11:59.329Z,0
2016-12-29T04:13:20.572Z,0
2016-12-29T04:14:42.633Z,0
2016-12-29T04:16:04.782Z,0
2016-12-29T04:17:27.655Z,0
2016-12-29T04:18:50.137Z,0
2016-12-29T04:20:12.204Z,0
2016-12-29T04:21:34.356Z,0
2016-12-29T04:22:56.405Z,0
2016-12-29T04:24:18.863Z,0
2016-12-29T04:25:41.754Z,0
2016-12-29T04:27:03.033Z,0
2016-12-29T04:28:26.001Z,0
2016-12-29T04:29:47.289Z,0
2016-12-29T04:31:09.366Z,0
2016-12-29T04:32:31.010Z,0
2016-12-29T04:33:53.895Z,0
2016-12-29T04:35:16.935Z,0
2016-12-29T04:36:39.809Z,0
2016-12-29T04:38:02.273Z,0
2016-12-29T04:39:24.732Z,0
2016-12-29T04:40:47.195Z,0
2016-12-29T04:42:09.720Z,0
2016-12-29T04:43:32.167Z,0
2016-12-29T04:44:54.648Z,0
2016-12-29T04:46:17.603Z,0
2016-12-29T04:48:12.353Z,0
2016-12-29T04:49:35.374Z,0
2016-12-29T04:50:58.070Z,0
2016-12-29T04:52:20.617Z,0
2016-12-29T04:53:42.680Z,0
2016-12-29T04:55:05.624Z,0
2016-12-29T04:56:28.076Z,0
2016-12-29T04:57:50.928Z,0
2016-12-29T04:59:13.491Z,0
2016-12-29T05:00:36.390Z,0
2016-12-29T05:01:59.257Z,0
2016-12-29T05:03:20.568Z,0
2016-12-29T05:04:43.059Z,0
2016-12-29T05:06:05.920Z,0
2016-12-29T05:07:27.339Z,0
2016-12-29T05:08:50.216Z,0
2016-12-29T05:10:12.363Z,0
2016-12-29T05:11:34.029Z,0
2016-12-29T05:12:56.966Z,0
2016-12-29T05:14:19.051Z,0
2016-12-29T05:15:40.723Z,0
2016-12-29T05:17:02.398Z,0
2016-12-29T05:18:24.614Z,0
2016-12-29T05:19:47.129Z,0
2016-12-29T05:21:09.193Z,0
2016-12-29T05:22:31.356Z,0
2016-12-29T05:23:54.214Z,0
2016-12-29T05:25:17.115Z,0
2016-12-29T05:26:39.273Z,0
2016-12-29T05:28:00.924Z,0
2016-12-29T05:29:22.587Z,0
2016-12-29T05:30:45.062Z,0
2016-12-29T05:32:06.313Z,0
2016-12-29T05:33:28.797Z,0
2016-12-29T05:34:51.330Z,0
2016-12-29T05:36:13.804Z,0
2016-12-29T05:37:35.523Z,0
2016-12-29T05:38:58.371Z,0
2016-12-29T05:40:20.433Z,0
2016-12-29T05:41:42.097Z,0
2016-12-29T05:43:05.025Z,0
2016-12-29T05:44:27.211Z,0
2016-12-29T05:45:49.291Z,0
2016-12-29T05:47:12.180Z,0
2016-12-29T05:48:35.054Z,0
2016-12-29T05:49:57.515Z,0
2016-12-29T05:51:19.604Z,0
2016-12-29T05:52:41.693Z,0
2016-12-29T05:54:04.235Z,0
2016-12-29T05:55:26.798Z,0
2016-12-29T05:56:49.704Z,0
2016-12-29T05:58:12.146Z,0
2016-12-29T05:59:34.217Z,0
2016-12-29T06:00:55.966Z,0
2016-12-29T06:02:18.446Z,0
2016-12-29T06:03:40.675Z,0
2016-12-29T06:05:03.142Z,0
2016-12-29T06:06:25.674Z,0
2016-12-29T06:07:48.551Z,0
2016-12-29T06:09:10.251Z,0
2016-12-29T06:10:32.335Z,0
2016-12-29T06:11:54.834Z,0
2016-12-29T06:13:17.746Z,0
2016-12-29T06:14:39.445Z,0
2016-12-29T06:16:02.309Z,0
2016-12-29T06:17:24.799Z,0
2016-12-29T06:18:46.517Z,0
2016-12-29T06:20:09.454Z,0
2016-12-29T06:21:32.413Z,0
2016-12-29T06:22:54.900Z,0
2016-12-29T06:24:16.974Z,0
2016-12-29T06:25:39.171Z,0
2016-12-29T06:27:01.696Z,0
2016-12-29T06:28:23.038Z,0
2016-12-29T06:29:45.907Z,0
2016-12-29T06:31:08.925Z,0
2016-12-29T06:32:30.618Z,0
2016-12-29T06:33:53.605Z,0
2016-12-29T06:35:16.477Z,0
2016-12-29T06:36:38.571Z,0
2016-12-29T06:38:01.485Z,0
2016-12-29T06:39:23.172Z,0
2016-12-29T06:40:45.634Z,0
2016-12-29T06:42:08.586Z,0
2016-12-29T06:43:31.539Z,0
2016-12-29T06:44:54.021Z,0
2016-12-29T06:46:15.686Z,0
2016-12-29T06:47:38.575Z,0
2016-12-29T06:49:00.434Z,0
2016-12-29T06:50:23.030Z,0
2016-12-29T06:51:45.583Z,0
2016-12-29T06:53:07.763Z,0
2016-12-29T06:54:30.205Z,4
2016-12-29T06:55:52.324Z,0
2016-12-29T06:57:14.400Z,0
2016-12-29T06:58:37.457Z,4
2016-12-29T07:00:00.314Z,4
2016-12-29T07:01:22.863Z,4
2016-12-29T07:02:45.722Z,4
2016-12-29T07:04:07.926Z,8
2016-12-29T07:05:30.403Z,8
2016-12-29T07:06:53.034Z,8
2016-12-29T07:08:15.151Z,12
2016-12-29T07:09:37.208Z,12
2016-12-29T07:11:00.076Z,16
2016-12-29T07:12:21.786Z,16
2016-12-29T07:13:43.885Z,20
2016-12-29T07:15:06.756Z,28
2016-12-29T07:16:28.925Z,32
2016-12-29T07:17:51.389Z,40
2016-12-29T07:19:13.464Z,44
2016-12-29T07:20:35.896Z,52
2016-12-29T07:21:58.359Z,64
2016-12-29T07:23:20.034Z,72
2016-12-29T07:24:42.525Z,84
2016-12-29T07:26:05.607Z,100
2016-12-29T07:27:28.472Z,116
2016-12-29T07:28:50.567Z,136
2016-12-29T07:30:12.682Z,156
2016-12-29T07:31:35.239Z,184
2016-12-29T07:32:57.324Z,204
2016-12-29T07:34:19.836Z,236
2016-12-29T07:35:42.415Z,264
2016-12-29T07:37:04.895Z,296
2016-12-29T07:38:26.956Z,332
2016-12-29T07:39:49.475Z,372
2016-12-29T07:41:12.335Z,412
2016-12-29T07:42:34.381Z,452
2016-12-29T07:43:56.502Z,488
2016-12-29T07:45:18.566Z,532
2016-12-29T07:46:41.047Z,576
2016-12-29T07:48:03.943Z,620
2016-12-29T07:49:25.588Z,668
2016-12-29T07:50:47.759Z,716
2016-12-29T07:52:09.575Z,764
2016-12-29T07:53:32.463Z,816
2016-12-29T07:54:55.132Z,868
2016-12-29T07:56:17.287Z,924
2016-12-29T07:57:39.764Z,980
2016-12-29T07:59:02.261Z,1028
2016-12-29T08:00:25.215Z,1084
2016-12-29T08:01:48.094Z,1140
2016-12-29T08:03:10.610Z,1200
2016-12-29T08:04:33.107Z,1260
2016-12-29T08:05:56.060Z,1316
2016-12-29T08:07:18.519Z,1372
2016-12-29T08:08:41.421Z,1428
2016-12-29T08:10:03.144Z,1476
2016-12-29T08:11:24.844Z,1532
2016-12-29T08:12:47.337Z,1588
2016-12-29T08:14:10.039Z,1640
2016-12-29T08:15:31.307Z,1696
2016-12-29T08:16:53.793Z,1756
2016-12-29T08:18:15.866Z,1808
2016-12-29T08:19:38.759Z,1860
2016-12-29T08:21:01.362Z,1908
2016-12-29T08:22:24.206Z,1956
2016-12-29T08:23:46.327Z,2004
2016-12-29T08:25:08.791Z,2056
2016-12-29T08:26:31.313Z,2104
2016-12-29T08:27:53.773Z,2152
2016-12-29T08:29:15.839Z,2200
2016-12-29T08:30:37.985Z,2244
2016-12-29T08:32:00.865Z,2284
2016-12-29T08:33:23.742Z,2320
2016-12-29T08:34:46.593Z,2364
2016-12-29T08:36:09.459Z,2408
2016-12-29T08:37:31.972Z,2448
2016-12-29T08:38:54.455Z,2480
2016-12-29T08:40:16.590Z,2516
2016-12-29T08:41:39.475Z,2552
2016-12-29T08:43:01.924Z,2588
2016-12-29T08:44:24.816Z,2620
2016-12-29T08:45:47.518Z,2656
2016-12-29T08:47:10.126Z,2692
2016-12-29T08:48:32.224Z,2724
2016-12-29T08:49:54.676Z,2760
2016-12-29T08:51:17.678Z,2788
2016-12-29T08:52:39.761Z,2820
2016-12-29T08:54:02.449Z,2848
2016-12-29T08:55:25.408Z,2872
2016-12-29T08:56:47.852Z,2904
2016-12-29T08:58:10.334Z,2928
2016-12-29T08:59:32.808Z,2956
2016-12-29T09:00:55.455Z,2984
2016-12-29T09:02:17.125Z,3012
2016-12-29T09:03:39.203Z,3032
2016-12-29T09:05:01.668Z,3056
2016-12-29T09:06:23.852Z,3076
2016-12-29T09:07:45.523Z,3100
2016-12-29T09:09:08.436Z,3124
2016-12-29T09:10:30.903Z,3140
2016-12-29T09:11:53.389Z,3160
2016-12-29T09:13:15.844Z,3188
2016-12-29T09:14:38.724Z,3212
2016-12-29T09:16:00.875Z,3220
2016-12-29T09:17:23.446Z,3244
2016-12-29T09:18:45.517Z,3260
2016-12-29T09:20:06.775Z,3280
2016-12-29T09:21:28.965Z,3304
2016-12-29T09:22:51.416Z,3316
2016-12-29T09:24:14.271Z,3332
2016-12-29T09:25:36.002Z,3348
2016-12-29T09:26:58.872Z,3356
2016-12-29T09:28:21.034Z,3372
2016-12-29T09:29:43.101Z,3388
2016-12-29T09:31:06.001Z,3408
2016-12-29T09:32:28.477Z,3420
2016-12-29T09:33:51.037Z,3436
2016-12-29T09:35:13.523Z,3440
2016-12-29T09:36:36.490Z,3444
2016-12-29T09:37:59.374Z,3460
2016-12-29T09:39:21.826Z,3476
2016-12-29T09:40:44.732Z,3484
2016-12-29T09:42:07.219Z,3496
2016-12-29T09:43:29.725Z,3504
2016-12-29T09:44:52.245Z,3520
2016-12-29T09:46:14.791Z,3536
2016-12-29T09:47:36.983Z,3540
2016-12-29T09:48:59.533Z,3552
2016-12-29T09:50:22.098Z,3568
2016-12-29T09:51:44.165Z,3580
2016-12-29T09:53:06.252Z,3588
2016-12-29T09:54:28.316Z,3596
2016-12-29T09:55:50.813Z,3620
2016-12-29T09:57:13.687Z,3624
2016-12-29T09:58:36.270Z,3628
2016-12-29T09:59:58.757Z,3640
2016-12-29T10:01:21.326Z,3648
2016-12-29T10:02:44.210Z,3660
2016-12-29T10:04:05.527Z,3672
2016-12-29T10:05:27.584Z,3684
2016-12-29T10:06:50.164Z,3696
2016-12-29T10:08:12.664Z,3704
2016-12-29T10:09:35.028Z,3712
2016-12-29T10:10:57.628Z,3720
2016-12-29T10:12:20.083Z,3724
2016-12-29T10:13:42.960Z,3732
2016-12-29T10:15:05.068Z,3736
2016-12-29T10:16:27.539Z,3748
2016-12-29T10:17:50.014Z,3744
2016-12-29T10:19:12.083Z,3760
2016-12-29T10:20:35.092Z,3760
2016-12-29T10:21:57.983Z,3772
2016-12-29T10:23:20.471Z,3780
2016-12-29T10:24:42.927Z,3780
2016-12-29T10:26:05.802Z,3784
2016-12-29T10:27:28.297Z,3796
2016-12-29T10:28:51.202Z,3800
2016-12-29T10:30:14.170Z,3812
2016-12-29T10:31:36.303Z,3820
2016-12-29T10:32:58.802Z,3828
2016-12-29T10:34:21.268Z,3828
2016-12-29T10:35:44.227Z,3836
2016-12-29T10:37:06.327Z,3848
2016-12-29T10:38:29.012Z,3852
2016-12-29T10:39:51.093Z,3848
2016-12-29T10:41:13.552Z,3852
2016-12-29T10:42:36.070Z,3852
2016-12-29T10:43:58.967Z,3852
2016-12-29T10:45:21.026Z,3868
2016-12-29T10:46:43.554Z,3876
2016-12-29T10:48:05.622Z,3892
2016-12-29T10:49:28.466Z,3896
2016-12-29T10:50:50.985Z,3908
2016-12-29T10:52:13.865Z,3924
2016-12-29T10:53:36.719Z,3932
2016-12-29T10:54:59.193Z,3924
2016-12-29T10:56:20.880Z,3904
2016-12-29T10:57:43.336Z,3888
2016-12-29T10:59:06.208Z,3872
2016-12-29T11:00:29.094Z,3860
2016-12-29T11:01:52.096Z,3860
2016-12-29T11:03:14.958Z,3864
2016-12-29T11:04:37.031Z,3864
2016-12-29T11:05:59.900Z,3864
2016-12-29T11:07:21.574Z,3856
2016-12-29T11:08:44.050Z,3848
2016-12-29T11:10:06.135Z,3844
2016-12-29T11:11:28.998Z,3840
2016-12-29T11:12:51.460Z,3832
2016-12-29T11:14:13.935Z,3828
2016-12-29T11:15:36.790Z,3820
2016-12-29T11:16:59.637Z,3816
2016-12-29T11:18:22.103Z,3824
2016-12-29T11:19:45.075Z,3820
2016-12-29T11:21:07.598Z,3820
2016-12-29T11:22:29.273Z,3820
2016-12-29T11:23:51.755Z,3816
2016-12-29T11:25:13.841Z,3824
2016-12-29T11:26:35.911Z,3820
2016-12-29T11:27:58.465Z,3820
2016-12-29T11:29:20.919Z,3816
2016-12-29T11:30:42.604Z,3816
2016-12-29T11:32:04.300Z,3812
2016-12-29T11:33:26.763Z,3812
2016-12-29T11:34:49.345Z,3808
2016-12-29T11:36:11.860Z,3808
2016-12-29T11:37:34.188Z,3808
2016-12-29T11:38:55.862Z,3808
2016-12-29T11:40:18.320Z,3812
2016-12-29T11:41:40.824Z,3812
2016-12-29T11:43:03.387Z,3812
2016-12-29T11:44:26.417Z,3804
2016-12-29T11:45:48.871Z,3804
2016-12-29T11:47:10.967Z,3804
2016-12-29T11:48:33.685Z,3800
2016-12-29T11:49:55.733Z,3800
2016-12-29T11:51:18.613Z,3804
2016-12-29T11:52:40.482Z,3796
2016-12-29T11:54:02.590Z,3792
2016-12-29T11:55:25.458Z,3804
2016-12-29T11:56:48.306Z,3796
2016-12-29T11:58:09.974Z,3796
2016-12-29T11:59:32.042Z,3792
2016-12-29T12:00:54.895Z,3784
2016-12-29T12:02:17.513Z,3784
2016-12-29T12:03:39.996Z,3780
2016-12-29T12:05:02.577Z,3772
2016-12-29T12:06:25.098Z,3768
2016-12-29T12:07:47.547Z,3764
2016-12-29T12:09:10.040Z,3764
2016-12-29T12:10:32.533Z,3756
2016-12-29T12:11:54.264Z,3752
2016-12-29T12:13:16.454Z,3744
2016-12-29T12:14:38.263Z,3744
2016-12-29T12:16:00.484Z,3748
2016-12-29T12:17:22.602Z,3736
2016-12-29T12:18:44.683Z,3736
2016-12-29T12:20:07.725Z,3740
2016-12-29T12:21:30.224Z,3736
2016-12-29T12:22:53.248Z,3728
2016-12-29T12:24:15.312Z,3728
2016-12-29T12:25:37.401Z,3716
2016-12-29T12:26:59.880Z,3712
2016-12-29T12:28:22.761Z,3704
2016-12-29T12:29:44.989Z,3708
2016-12-29T12:31:07.051Z,3704
2016-12-29T12:32:29.190Z,3700
2016-12-29T12:33:51.274Z,3688
2016-12-29T12:35:13.751Z,3684
2016-12-29T12:36:36.247Z,3672
2016-12-29T12:37:58.746Z,3664
2016-12-29T12:39:20.810Z,3656
2016-12-29T12:40:42.874Z,3652
2016-12-29T12:42:05.499Z,3640
2016-12-29T12:43:27.979Z,3632
2016-12-29T12:44:51.005Z,3620
2016-12-29T12:46:13.082Z,3612
2016-12-29T12:47:35.629Z,3608
2016-12-29T12:48:58.317Z,3596
2016-12-29T12:50:20.786Z,3588
2016-12-29T12:51:42.474Z,3580
2016-12-29T12:53:04.162Z,3572
2016-12-29T12:54:26.644Z,3564
2016-12-29T12:55:48.794Z,3556
2016-12-29T12:57:10.929Z,3544
2016-12-29T12:58:33.399Z,3528
2016-12-29T12:59:55.476Z,3520
2016-12-29T13:01:17.567Z,3500
2016-12-29T13:02:40.050Z,3492
2016-12-29T13:04:02.952Z,3480
2016-12-29T13:05:25.558Z,3468
2016-12-29T13:06:47.229Z,3452
2016-12-29T13:08:09.368Z,3440
2016-12-29T13:09:31.446Z,3424
2016-12-29T13:10:53.539Z,3412
2016-12-29T13:12:16.098Z,3396
2016-12-29T13:13:38.568Z,3380
2016-12-29T13:15:01.019Z,3368
2016-12-29T13:16:23.129Z,3360
2016-12-29T13:17:45.197Z,3340
2016-12-29T13:19:07.672Z,3324
2016-12-29T13:20:30.192Z,3308
2016-12-29T13:21:51.900Z,3340
2016-12-29T13:23:13.995Z,3388
2016-12-29T13:24:36.621Z,3424
2016-12-29T13:25:59.569Z,3548
2016-12-29T13:27:21.736Z,3680
2016-12-29T13:28:44.241Z,4380
2016-12-29T13:30:05.931Z,4128
2016-12-29T13:31:28.410Z,3676
2016-12-29T13:32:50.582Z,3308
2016-12-29T13:34:12.812Z,3240
2016-12-29T13:35:35.305Z,3164
2016-12-29T13:36:57.770Z,3108
2016-12-29T13:38:20.818Z,3084
2016-12-29T13:39:43.391Z,3064
2016-12-29T13:41:05.848Z,3044
2016-12-29T13:42:28.339Z,3024
2016-12-29T13:43:51.389Z,3004
2016-12-29T13:45:14.291Z,2980
2016-12-29T13:46:36.356Z,2956
2016-12-29T13:47:58.877Z,2936
2016-12-29T13:49:21.373Z,2912
2016-12-29T13:50:43.842Z,2892
2016-12-29T13:52:06.060Z,2872
2016-12-29T13:53:27.725Z,2844
2016-12-29T13:54:50.289Z,2824
2016-12-29T13:56:13.181Z,2796
2016-12-29T13:57:36.058Z,2772
2016-12-29T13:58:58.910Z,2748
2016-12-29T14:00:21.010Z,2720
2016-12-29T14:01:43.591Z,2692
2016-12-29T14:03:05.280Z,2664
2016-12-29T14:04:28.240Z,2632
2016-12-29T14:05:50.692Z,2604
2016-12-29T14:07:13.604Z,2572
2016-12-29T14:08:35.725Z,2540
2016-12-29T14:09:58.648Z,2512
2016-12-29T14:11:20.733Z,2480
2016-12-29T14:12:43.640Z,2444
2016-12-29T14:14:06.520Z,2408
2016-12-29T14:15:29.058Z,2380
2016-12-29T14:16:51.536Z,2348
2016-12-29T14:18:13.741Z,2308
2016-12-29T14:19:35.804Z,2272
2016-12-29T14:20:58.783Z,2236
2016-12-29T14:22:20.862Z,2204
2016-12-29T14:23:43.739Z,2220
2016-12-29T14:25:06.598Z,2180
2016-12-29T14:26:28.667Z,2100
2016-12-29T14:27:51.280Z,2040
2016-12-29T14:29:14.184Z,1996
2016-12-29T14:30:36.645Z,1952
2016-12-29T14:31:58.384Z,1908
2016-12-29T14:33:20.983Z,1860
2016-12-29T14:34:42.349Z,1816
2016-12-29T14:36:05.247Z,1768
2016-12-29T14:37:28.152Z,1724
2016-12-29T14:38:50.214Z,1672
2016-12-29T14:40:12.287Z,1620
2016-12-29T14:41:34.768Z,1576
2016-12-29T14:42:56.739Z,1528
2016-12-29T14:44:19.367Z,1472
2016-12-29T14:45:42.280Z,1424
2016-12-29T14:47:04.363Z,1372
2016-12-29T14:48:27.290Z,1320
2016-12-29T14:49:50.163Z,1268
2016-12-29T14:51:11.825Z,1216
2016-12-29T14:52:34.748Z,1160
2016-12-29T14:53:57.637Z,1112
2016-12-29T14:55:19.707Z,1056
2016-12-29T14:56:41.779Z,1004
2016-12-29T14:58:03.855Z,948
2016-12-29T14:59:26.718Z,896
2016-12-29T15:00:49.544Z,844
2016-12-29T15:02:12.018Z,792
2016-12-29T15:03:34.486Z,740
2016-12-29T15:04:57.422Z,688
2016-12-29T15:06:19.497Z,640
2016-12-29T15:07:41.982Z,592
2016-12-29T15:09:04.463Z,544
2016-12-29T15:10:26.935Z,500
2016-12-29T15:11:49.504Z,460
2016-12-29T15:13:12.095Z,416
2016-12-29T15:14:33.056Z,380
2016-12-29T15:15:56.016Z,340
2016-12-29T15:17:18.514Z,304
2016-12-29T15:18:41.412Z,272
2016-12-29T15:20:04.065Z,240
2016-12-29T15:21:26.163Z,212
2016-12-29T15:22:48.727Z,184
2016-12-29T15:24:10.901Z,160
2016-12-29T15:25:33.468Z,136
2016-12-29T15:26:56.142Z,120
2016-12-29T15:28:18.389Z,104
2016-12-29T15:29:40.598Z,84
2016-12-29T15:31:02.518Z,72
2016-12-29T15:32:25.529Z,60
2016-12-29T15:33:48.408Z,52
2016-12-29T15:35:10.695Z,40
2016-12-29T15:36:32.812Z,32
2016-12-29T15:37:54.654Z,28
2016-12-29T15:39:16.881Z,20
2016-12-29T15:40:39.848Z,20
2016-12-29T15:42:03.380Z,16
2016-12-29T15:43:25.179Z,12
2016-12-29T15:44:47.493Z,8
2016-12-29T15:46:09.767Z,8
2016-12-29T15:47:32.012Z,8
2016-12-29T15:48:54.539Z,8
2016-12-29T15:50:17.078Z,4
2016-12-29T15:51:39.239Z,4
2016-12-29T15:53:01.789Z,4
2016-12-29T15:54:24.279Z,0
2016-12-29T15:55:46.859Z,4
2016-12-29T15:57:08.980Z,4
2016-12-29T15:58:32.068Z,0
2016-12-29T15:59:54.201Z,0
2016-12-29T16:01:15.512Z,0
2016-12-29T16:02:37.825Z,0
2016-12-29T16:04:00.570Z,0
2016-12-29T16:05:23.668Z,0
2016-12-29T16:06:45.873Z,0
2016-12-29T16:08:07.645Z,0
2016-12-29T16:09:30.302Z,0
2016-12-29T16:10:52.961Z,0
2016-12-29T16:12:15.772Z,0
2016-12-29T16:13:38.926Z,0
2016-12-29T16:15:01.823Z,0
2016-12-29T16:16:24.877Z,0
2016-12-29T16:17:48.075Z,0
2016-12-29T16:19:11.052Z,0
2016-12-29T16:20:34.242Z,0
2016-12-29T16:21:56.384Z,0
2016-12-29T16:23:18.902Z,0
2016-12-29T16:24:41.178Z,0
2016-12-29T16:26:03.822Z,0
2016-12-29T16:27:25.963Z,0
2016-12-29T16:28:48.964Z,0
2016-12-29T16:30:12.052Z,0
2016-12-29T16:31:35.198Z,0
2016-12-29T16:32:57.789Z,0
2016-12-29T16:34:21.431Z,0
2016-12-29T16:35:45.045Z,0
2016-12-29T16:37:07.948Z,0
2016-12-29T16:38:30.927Z,0
2016-12-29T16:39:54.003Z,0
2016-12-29T16:41:17.808Z,0
2016-12-29T16:42:41.850Z,0
2016-12-29T16:44:04.488Z,0
2016-12-29T16:45:27.307Z,0
2016-12-29T16:46:50.813Z,0
2016-12-29T16:48:14.418Z,0
2016-12-29T16:49:37.517Z,0
2016-12-29T16:50:59.727Z,0
2016-12-29T16:52:21.935Z,0
2016-12-29T16:53:44.855Z,0
2016-12-29T16:55:07.115Z,0
2016-12-29T16:56:30.041Z,0
2016-12-29T16:57:53.636Z,0
2016-12-29T16:59:16.470Z,0
2016-12-29T17:00:39.522Z,0
2016-12-29T17:02:01.842Z,0
2016-12-29T17:03:25.190Z,0
2016-12-29T17:04:48.362Z,0
2016-12-29T17:06:11.660Z,0
2016-12-29T17:07:35.334Z,0
2016-12-29T17:08:57.790Z,0
2016-12-29T17:10:21.163Z,0
2016-12-29T17:11:43.860Z,0
2016-12-29T17:13:06.654Z,0
2016-12-29T17:14:28.716Z,0
2016-12-29T17:15:51.593Z,0
2016-12-29T17:17:14.003Z,0
2016-12-29T17:18:36.330Z,0
2016-12-29T17:19:58.155Z,0
2016-12-29T17:21:21.092Z,0
2016-12-29T17:22:43.764Z,0
2016-12-29T17:24:07.544Z,0
2016-12-29T17:25:30.566Z,0
2016-12-29T17:26:52.838Z,0
2016-12-29T17:28:16.575Z,0
2016-12-29T17:29:39.914Z,0
2016-12-29T17:31:03.661Z,0
2016-12-29T17:32:26.926Z,0
2016-12-29T17:33:50.796Z,0
2016-12-29T17:35:14.784Z,0
2016-12-29T17:36:37.727Z,0
2016-12-29T17:38:00.511Z,0
2016-12-29T17:39:22.677Z,0
2016-12-29T17:40:46.366Z,0
2016-12-29T17:42:09.665Z,0
2016-12-29T17:43:32.435Z,0
2016-12-29T17:44:56.344Z,0
2016-12-29T17:46:19.366Z,0
2016-12-29T17:47:42.526Z,0
2016-12-29T17:49:04.753Z,0
2016-12-29T17:50:28.477Z,0
2016-12-29T17:51:51.336Z,0
2016-12-29T17:53:14.360Z,0
2016-12-29T17:54:37.029Z,0
2016-12-29T17:56:00.736Z,0
2016-12-29T17:57:24.298Z,0
2016-12-29T17:58:47.626Z,0
2016-12-29T18:00:11.744Z,0
2016-12-29T18:01:35.420Z,0
2016-12-29T18:02:59.447Z,0
2016-12-29T18:04:22.141Z,0
2016-12-29T18:05:45.857Z,0
2016-12-29T18:07:08.838Z,0
2016-12-29T18:08:32.449Z,0
2016-12-29T18:09:57.228Z,0
2016-12-29T18:11:20.937Z,0
2016-12-29T18:12:43.066Z,0
2016-12-29T18:14:06.550Z,0
2016-12-29T18:15:30.137Z,0
2016-12-29T18:16:54.824Z,0
2016-12-29T18:18:18.455Z,0
2016-12-29T18:19:42.038Z,0
2016-12-29T18:21:06.759Z,0
2016-12-29T18:22:29.874Z,0
2016-12-29T18:23:53.674Z,0
2016-12-29T18:25:17.318Z,0
2016-12-29T18:26:41.739Z,0
2016-12-29T18:28:06.174Z,0
2016-12-29T18:29:31.120Z,0
2016-12-29T18:30:54.898Z,0
2016-12-29T18:32:18.685Z,0
2016-12-29T18:33:42.577Z,0
2016-12-29T18:35:05.849Z,0
2016-12-29T18:36:29.020Z,0
2016-12-29T18:37:52.223Z,0
2016-12-29T18:39:16.213Z,0
2016-12-29T18:40:39.704Z,0
2016-12-29T18:42:03.130Z,0
2016-12-29T18:43:26.655Z,0
2016-12-29T18:44:51.238Z,0
2016-12-29T18:46:15.378Z,0
2016-12-29T18:47:40.401Z,0
2016-12-29T18:49:05.447Z,0
2016-12-29T18:50:28.271Z,0
2016-12-29T18:51:52.988Z,0
2016-12-29T18:53:16.639Z,0
2016-12-29T18:54:40.665Z,0
2016-12-29T18:56:03.387Z,0
2016-12-29T18:57:26.060Z,0
2016-12-29T18:58:48.114Z,0
2016-12-29T19:00:11.700Z,0
2016-12-29T19:01:35.506Z,0
2016-12-29T19:03:00.078Z,0
2016-12-29T19:04:23.296Z,0
2016-12-29T19:05:46.318Z,0
2016-12-29T19:07:10.418Z,0
2016-12-29T19:08:34.276Z,0
2016-12-29T19:09:58.089Z,0
2016-12-29T19:11:21.982Z,0
2016-12-29T19:12:45.363Z,0
2016-12-29T19:14:08.878Z,0
2016-12-29T19:15:33.029Z,0
2016-12-29T19:16:55.873Z,0
2016-12-29T19:18:18.371Z,0
2016-12-29T19:19:40.737Z,0
2016-12-29T19:21:03.798Z,0
2016-12-29T19:22:27.874Z,0
2016-12-29T19:23:53.054Z,0
2016-12-29T19:25:16.519Z,0
2016-12-29T19:26:40.551Z,0
2016-12-29T19:28:04.928Z,0
2016-12-29T19:29:29.043Z,0